createdAt,value
2023-05-01T00:07:31.776Z,101337.53
2023-05-01T00:37:34.771Z,101317.23
2023-05-01T01:07:38.839Z,101310.31
2023-05-01T01:37:41.735Z,101295.16
2023-05-01T02:07:46.010Z,101289.67
2023-05-01T02:37:48.867Z,101266.80
2023-05-01T03:07:54.301Z,101248.20
2023-05-01T03:37:57.280Z,101226.21
2023-05-01T04:08:01.350Z,101223.09
2023-05-01T04:38:04.225Z,101220.30
2023-05-01T05:08:07.671Z,101218.74
2023-05-01T05:38:10.560Z,101207.24
2023-05-01T06:08:14.170Z,101192.32
2023-05-01T06:38:17.218Z,101171.03
2023-05-01T07:08:21.249Z,101146.53
2023-05-01T07:38:24.178Z,101127.84
2023-05-01T08:08:28.834Z,101095.11
2023-05-01T08:38:31.784Z,101083.42
2023-05-01T09:08:35.983Z,101055.91
2023-05-01T09:38:38.945Z,101028.77
2023-05-01T10:08:42.784Z,101001.03
2023-05-01T10:38:45.637Z,100950.85
2023-05-01T11:08:50.534Z,100911.47
2023-05-01T11:38:53.539Z,100864.80
2023-05-01T12:08:57.592Z,100826.02
2023-05-01T12:39:00.514Z,100778.83
2023-05-01T13:09:04.239Z,100731.64
2023-05-01T13:39:07.271Z,100682.25
2023-05-01T14:09:11.672Z,100653.67
2023-05-01T14:39:14.687Z,100619.09
2023-05-01T15:09:18.346Z,100566.74
2023-05-01T15:39:21.465Z,100533.17
2023-05-01T16:09:24.784Z,100507.94
2023-05-01T16:39:27.649Z,100496.92
2023-05-01T17:09:31.729Z,100490.12
2023-05-01T17:39:34.579Z,100482.48
2023-05-01T18:09:38.370Z,100477.13
2023-05-01T18:39:41.426Z,100494.59
2023-05-01T19:09:46.489Z,100483.55
2023-05-01T19:39:50.084Z,100465.70
2023-05-01T20:09:54.213Z,100459.84
2023-05-01T20:39:57.844Z,100437.61
2023-05-01T21:10:01.540Z,100431.27
2023-05-01T21:40:05.171Z,100414.07
2023-05-01T22:10:08.112Z,100413.04
2023-05-01T22:40:11.659Z,100397.00
2023-05-01T23:10:14.829Z,100379.56
2023-05-01T23:40:18.132Z,100361.73
